sensor_id;sensor_type;location;lat;lon;timestamp;temperature;humidity
18043;DHT22;9146;48.074;11.968;2023-05-10T00:00:46;12.00;99.90
18043;DHT22;9146;48.074;11.968;2023-05-10T00:03:13;12.00;99.90
18043;DHT22;9146;48.074;11.968;2023-05-10T00:05:39;12.00;99.90
18043;DHT22;9146;48.074;11.968;2023-05-10T00:08:06;12.00;99.90
18043;DHT22;9146;48.074;11.968;2023-05-10T00:10:33;12.00;99.90
18043;DHT22;9146;48.074;11.968;2023-05-10T00:13:01;12.00;99.90
18043;DHT22;9146;48.074;11.968;2023-05-10T00:15:28;12.00;99.90
18043;DHT22;9146;48.074;11.968;2023-05-10T00:17:56;12.00;99.90
18043;DHT22;9146;48.074;11.968;2023-05-10T00:20:23;12.00;99.90
18043;DHT22;9146;48.074;11.968;2023-05-10T00:22:49;12.00;99.90
18043;DHT22;9146;48.074;11.968;2023-05-10T00:25:16;12.00;99.90
18043;DHT22;9146;48.074;11.968;2023-05-10T00:27:44;12.00;99.90
18043;DHT22;9146;48.074;11.968;2023-05-10T00:30:12;12.00;99.90
18043;DHT22;9146;48.074;11.968;2023-05-10T00:32:39;12.00;99.90
18043;DHT22;9146;48.074;11.968;2023-05-10T00:35:07;12.00;99.90
18043;DHT22;9146;48.074;11.968;2023-05-10T00:37:34;12.00;99.90
18043;DHT22;9146;48.074;11.968;2023-05-10T00:40:01;12.00;99.90
18043;DHT22;9146;48.074;11.968;2023-05-10T00:42:28;12.00;99.90
18043;DHT22;9146;48.074;11.968;2023-05-10T00:44:54;12.00;99.90
18043;DHT22;9146;48.074;11.968;2023-05-10T00:47:23;12.00;99.90
18043;DHT22;9146;48.074;11.968;2023-05-10T00:49:50;12.00;99.90
18043;DHT22;9146;48.074;11.968;2023-05-10T00:52:17;11.90;99.90
18043;DHT22;9146;48.074;11.968;2023-05-10T00:54:44;11.90;99.90
18043;DHT22;9146;48.074;11.968;2023-05-10T00:57:11;11.90;99.90
18043;DHT22;9146;48.074;11.968;2023-05-10T00:59:38;11.90;99.90
18043;DHT22;9146;48.074;11.968;2023-05-10T01:02:05;11.90;99.90
18043;DHT22;9146;48.074;11.968;2023-05-10T01:04:35;11.90;99.90
18043;DHT22;9146;48.074;11.968;2023-05-10T01:07:02;11.90;99.90
18043;DHT22;9146;48.074;11.968;2023-05-10T01:09:29;11.80;99.90
18043;DHT22;9146;48.074;11.968;2023-05-10T01:11:57;11.80;99.90
18043;DHT22;9146;48.074;11.968;2023-05-10T01:14:25;11.80;99.90
18043;DHT22;9146;48.074;11.968;2023-05-10T01:16:52;11.80;99.90
18043;DHT22;9146;48.074;11.968;2023-05-10T01:19:23;11.80;99.90
18043;DHT22;9146;48.074;11.968;2023-05-10T01:21:59;11.80;99.90
18043;DHT22;9146;48.074;11.968;2023-05-10T01:25:02;11.70;99.90
18043;DHT22;9146;48.074;11.968;2023-05-10T01:28:03;11.80;99.90
18043;DHT22;9146;48.074;11.968;2023-05-10T01:33:39;11.80;99.90
18043;DHT22;9146;48.074;11.968;2023-05-10T01:36:13;11.80;99.90
18043;DHT22;9146;48.074;11.968;2023-05-10T01:38:49;11.80;99.90
18043;DHT22;9146;48.074;11.968;2023-05-10T01:41:19;11.70;99.90
18043;DHT22;9146;48.074;11.968;2023-05-10T01:43:55;11.70;99.90
18043;DHT22;9146;48.074;11.968;2023-05-10T01:46:28;11.80;99.90
18043;DHT22;9146;48.074;11.968;2023-05-10T01:48:59;11.70;99.90
18043;DHT22;9146;48.074;11.968;2023-05-10T01:51:31;11.70;99.90
18043;DHT22;9146;48.074;11.968;2023-05-10T01:54:02;11.70;99.90
18043;DHT22;9146;48.074;11.968;2023-05-10T01:56:32;11.70;99.90
18043;DHT22;9146;48.074;11.968;2023-05-10T01:59:00;11.70;99.90
18043;DHT22;9146;48.074;11.968;2023-05-10T02:01:31;11.70;99.90
18043;DHT22;9146;48.074;11.968;2023-05-10T02:04:02;11.70;99.90
18043;DHT22;9146;48.074;11.968;2023-05-10T02:06:30;11.60;99.90
18043;DHT22;9146;48.074;11.968;2023-05-10T02:09:00;11.60;99.90
18043;DHT22;9146;48.074;11.968;2023-05-10T02:11:29;11.60;99.90
18043;DHT22;9146;48.074;11.968;2023-05-10T02:13:58;11.60;99.90
18043;DHT22;9146;48.074;11.968;2023-05-10T02:16:26;11.60;99.90
18043;DHT22;9146;48.074;11.968;2023-05-10T02:18:57;11.60;99.90
18043;DHT22;9146;48.074;11.968;2023-05-10T02:21:28;11.60;99.90
18043;DHT22;9146;48.074;11.968;2023-05-10T02:23:57;11.60;99.90
18043;DHT22;9146;48.074;11.968;2023-05-10T02:26:25;11.60;99.90
18043;DHT22;9146;48.074;11.968;2023-05-10T02:28:53;11.60;99.90
18043;DHT22;9146;48.074;11.968;2023-05-10T02:31:21;11.60;99.90
18043;DHT22;9146;48.074;11.968;2023-05-10T02:33:49;11.60;99.90
18043;DHT22;9146;48.074;11.968;2023-05-10T02:36:17;11.60;99.90
18043;DHT22;9146;48.074;11.968;2023-05-10T02:38:46;11.60;99.90
18043;DHT22;9146;48.074;11.968;2023-05-10T02:41:13;11.60;99.90
18043;DHT22;9146;48.074;11.968;2023-05-10T02:43:41;11.50;99.90
18043;DHT22;9146;48.074;11.968;2023-05-10T02:46:08;11.50;99.90
18043;DHT22;9146;48.074;11.968;2023-05-10T02:48:35;11.60;99.90
18043;DHT22;9146;48.074;11.968;2023-05-10T02:51:05;11.60;99.90
18043;DHT22;9146;48.074;11.968;2023-05-10T02:53:35;11.60;99.90
18043;DHT22;9146;48.074;11.968;2023-05-10T02:56:15;11.60;99.90
18043;DHT22;9146;48.074;11.968;2023-05-10T02:58:46;11.60;99.90
18043;DHT22;9146;48.074;11.968;2023-05-10T03:01:13;11.50;99.90
18043;DHT22;9146;48.074;11.968;2023-05-10T03:03:41;11.60;99.90
18043;DHT22;9146;48.074;11.968;2023-05-10T03:06:07;11.60;99.90
18043;DHT22;9146;48.074;11.968;2023-05-10T03:08:35;11.50;99.90
18043;DHT22;9146;48.074;11.968;2023-05-10T03:11:20;11.50;99.90
18043;DHT22;9146;48.074;11.968;2023-05-10T03:13:56;11.50;99.90
18043;DHT22;9146;48.074;11.968;2023-05-10T03:16:34;11.50;99.90
18043;DHT22;9146;48.074;11.968;2023-05-10T03:19:09;11.50;99.90
18043;DHT22;9146;48.074;11.968;2023-05-10T03:21:41;11.50;99.90
18043;DHT22;9146;48.074;11.968;2023-05-10T03:24:12;11.50;99.90
18043;DHT22;9146;48.074;11.968;2023-05-10T03:26:43;11.50;99.90
18043;DHT22;9146;48.074;11.968;2023-05-10T03:29:11;11.50;99.90
18043;DHT22;9146;48.074;11.968;2023-05-10T03:31:39;11.50;99.90
18043;DHT22;9146;48.074;11.968;2023-05-10T03:34:06;11.50;99.90
18043;DHT22;9146;48.074;11.968;2023-05-10T03:36:33;11.50;99.90
18043;DHT22;9146;48.074;11.968;2023-05-10T03:39:00;11.50;99.90
18043;DHT22;9146;48.074;11.968;2023-05-10T03:41:27;11.50;99.90
18043;DHT22;9146;48.074;11.968;2023-05-10T03:43:56;11.50;99.90
18043;DHT22;9146;48.074;11.968;2023-05-10T03:46:24;11.50;99.90
18043;DHT22;9146;48.074;11.968;2023-05-10T03:48:51;11.50;99.90
18043;DHT22;9146;48.074;11.968;2023-05-10T03:51:17;11.50;99.90
18043;DHT22;9146;48.074;11.968;2023-05-10T03:53:44;11.50;99.90
18043;DHT22;9146;48.074;11.968;2023-05-10T03:56:11;11.50;99.90
18043;DHT22;9146;48.074;11.968;2023-05-10T03:58:38;11.50;99.90
18043;DHT22;9146;48.074;11.968;2023-05-10T04:01:06;11.50;99.90
18043;DHT22;9146;48.074;11.968;2023-05-10T04:03:33;11.50;99.90
18043;DHT22;9146;48.074;11.968;2023-05-10T04:06:02;11.50;99.90
18043;DHT22;9146;48.074;11.968;2023-05-10T04:08:29;11.50;99.90
18043;DHT22;9146;48.074;11.968;2023-05-10T04:11:04;11.50;99.90
18043;DHT22;9146;48.074;11.968;2023-05-10T04:13:32;11.50;99.90
18043;DHT22;9146;48.074;11.968;2023-05-10T04:15:58;11.50;99.90
18043;DHT22;9146;48.074;11.968;2023-05-10T04:18:27;11.50;99.90
18043;DHT22;9146;48.074;11.968;2023-05-10T04:20:54;11.50;99.90
18043;DHT22;9146;48.074;11.968;2023-05-10T04:23:21;11.60;99.90
18043;DHT22;9146;48.074;11.968;2023-05-10T04:25:48;11.50;99.90
18043;DHT22;9146;48.074;11.968;2023-05-10T04:28:14;11.60;99.90
18043;DHT22;9146;48.074;11.968;2023-05-10T04:30:41;11.60;99.90
18043;DHT22;9146;48.074;11.968;2023-05-10T04:33:08;11.50;99.90
18043;DHT22;9146;48.074;11.968;2023-05-10T04:35:36;11.60;99.90
18043;DHT22;9146;48.074;11.968;2023-05-10T04:38:05;11.60;99.90
18043;DHT22;9146;48.074;11.968;2023-05-10T04:40:32;11.60;99.90
18043;DHT22;9146;48.074;11.968;2023-05-10T04:42:59;11.60;99.90
18043;DHT22;9146;48.074;11.968;2023-05-10T04:45:26;11.60;99.90
18043;DHT22;9146;48.074;11.968;2023-05-10T04:47:53;11.60;99.90
18043;DHT22;9146;48.074;11.968;2023-05-10T04:50:20;11.70;99.90
18043;DHT22;9146;48.074;11.968;2023-05-10T04:52:48;11.70;99.90
18043;DHT22;9146;48.074;11.968;2023-05-10T04:55:15;11.70;99.90
18043;DHT22;9146;48.074;11.968;2023-05-10T04:57:42;11.70;99.90
18043;DHT22;9146;48.074;11.968;2023-05-10T05:00:11;11.80;99.90
18043;DHT22;9146;48.074;11.968;2023-05-10T05:02:38;11.80;99.90
18043;DHT22;9146;48.074;11.968;2023-05-10T05:05:05;11.80;99.90
18043;DHT22;9146;48.074;11.968;2023-05-10T05:07:32;11.80;99.90
18043;DHT22;9146;48.074;11.968;2023-05-10T05:12:58;11.80;99.90
18043;DHT22;9146;48.074;11.968;2023-05-10T05:15:26;11.80;99.90
18043;DHT22;9146;48.074;11.968;2023-05-10T05:17:52;11.80;99.90
18043;DHT22;9146;48.074;11.968;2023-05-10T05:20:20;11.80;99.90
18043;DHT22;9146;48.074;11.968;2023-05-10T05:22:46;11.80;99.90
18043;DHT22;9146;48.074;11.968;2023-05-10T05:25:13;11.80;99.90
18043;DHT22;9146;48.074;11.968;2023-05-10T05:27:40;11.90;99.90
18043;DHT22;9146;48.074;11.968;2023-05-10T05:30:11;11.90;99.90
18043;DHT22;9146;48.074;11.968;2023-05-10T05:32:38;11.90;99.90
18043;DHT22;9146;48.074;11.968;2023-05-10T05:35:05;12.00;99.90
18043;DHT22;9146;48.074;11.968;2023-05-10T05:37:32;12.00;99.90
18043;DHT22;9146;48.074;11.968;2023-05-10T05:39:59;12.00;99.90
18043;DHT22;9146;48.074;11.968;2023-05-10T05:42:27;12.00;99.90
18043;DHT22;9146;48.074;11.968;2023-05-10T05:44:54;12.00;99.90
18043;DHT22;9146;48.074;11.968;2023-05-10T05:47:22;11.90;99.90
18043;DHT22;9146;48.074;11.968;2023-05-10T05:49:49;11.90;99.90
18043;DHT22;9146;48.074;11.968;2023-05-10T05:52:16;11.80;99.90
18043;DHT22;9146;48.074;11.968;2023-05-10T05:54:43;11.70;99.90
18043;DHT22;9146;48.074;11.968;2023-05-10T05:57:09;11.70;99.90
18043;DHT22;9146;48.074;11.968;2023-05-10T05:59:36;11.60;99.90
18043;DHT22;9146;48.074;11.968;2023-05-10T06:02:07;11.60;99.90
18043;DHT22;9146;48.074;11.968;2023-05-10T06:04:35;11.60;99.90
18043;DHT22;9146;48.074;11.968;2023-05-10T06:07:02;11.50;99.90
18043;DHT22;9146;48.074;11.968;2023-05-10T06:09:29;11.40;99.90
18043;DHT22;9146;48.074;11.968;2023-05-10T06:11:56;11.40;99.90
18043;DHT22;9146;48.074;11.968;2023-05-10T06:14:23;11.30;99.90
18043;DHT22;9146;48.074;11.968;2023-05-10T06:16:50;11.30;99.90
18043;DHT22;9146;48.074;11.968;2023-05-10T06:19:17;11.30;99.90
18043;DHT22;9146;48.074;11.968;2023-05-10T06:21:45;11.30;99.90
18043;DHT22;9146;48.074;11.968;2023-05-10T06:24:12;11.10;99.90
18043;DHT22;9146;48.074;11.968;2023-05-10T06:26:39;11.00;99.90
18043;DHT22;9146;48.074;11.968;2023-05-10T06:29:06;11.00;99.90
18043;DHT22;9146;48.074;11.968;2023-05-10T06:31:33;10.90;99.90
18043;DHT22;9146;48.074;11.968;2023-05-10T06:33:59;10.90;99.90
18043;DHT22;9146;48.074;11.968;2023-05-10T06:36:26;10.90;99.90
18043;DHT22;9146;48.074;11.968;2023-05-10T06:38:55;11.00;99.90
18043;DHT22;9146;48.074;11.968;2023-05-10T06:41:21;11.00;99.90
18043;DHT22;9146;48.074;11.968;2023-05-10T06:43:49;11.00;99.90
18043;DHT22;9146;48.074;11.968;2023-05-10T06:46:16;11.00;99.90
18043;DHT22;9146;48.074;11.968;2023-05-10T06:48:43;11.00;99.90
18043;DHT22;9146;48.074;11.968;2023-05-10T06:51:10;11.00;99.90
18043;DHT22;9146;48.074;11.968;2023-05-10T06:53:37;11.10;99.90
18043;DHT22;9146;48.074;11.968;2023-05-10T06:56:05;11.10;99.90
18043;DHT22;9146;48.074;11.968;2023-05-10T06:58:32;11.20;99.90
18043;DHT22;9146;48.074;11.968;2023-05-10T07:01:02;11.20;99.90
18043;DHT22;9146;48.074;11.968;2023-05-10T07:03:29;11.20;99.90
18043;DHT22;9146;48.074;11.968;2023-05-10T07:06:00;11.30;99.90
18043;DHT22;9146;48.074;11.968;2023-05-10T07:08:29;11.40;99.90
18043;DHT22;9146;48.074;11.968;2023-05-10T07:11:00;11.40;99.90
18043;DHT22;9146;48.074;11.968;2023-05-10T07:13:28;11.60;99.90
18043;DHT22;9146;48.074;11.968;2023-05-10T07:15:55;11.70;99.90
18043;DHT22;9146;48.074;11.968;2023-05-10T07:18:22;11.80;99.90
18043;DHT22;9146;48.074;11.968;2023-05-10T07:20:49;11.80;99.90
18043;DHT22;9146;48.074;11.968;2023-05-10T07:23:16;11.90;99.90
18043;DHT22;9146;48.074;11.968;2023-05-10T07:25:45;11.90;99.90
18043;DHT22;9146;48.074;11.968;2023-05-10T07:28:12;12.00;99.90
18043;DHT22;9146;48.074;11.968;2023-05-10T07:30:40;12.10;99.90
18043;DHT22;9146;48.074;11.968;2023-05-10T07:33:08;12.20;99.90
18043;DHT22;9146;48.074;11.968;2023-05-10T07:35:35;12.30;99.90
18043;DHT22;9146;48.074;11.968;2023-05-10T07:38:02;12.50;99.90
18043;DHT22;9146;48.074;11.968;2023-05-10T07:40:29;12.60;99.90
18043;DHT22;9146;48.074;11.968;2023-05-10T07:42:56;12.80;99.90
18043;DHT22;9146;48.074;11.968;2023-05-10T07:45:23;13.00;99.90
18043;DHT22;9146;48.074;11.968;2023-05-10T07:47:51;13.20;99.90
18043;DHT22;9146;48.074;11.968;2023-05-10T07:50:18;13.30;99.90
18043;DHT22;9146;48.074;11.968;2023-05-10T07:52:46;13.40;99.90
18043;DHT22;9146;48.074;11.968;2023-05-10T07:55:13;13.50;99.90
18043;DHT22;9146;48.074;11.968;2023-05-10T07:57:42;13.50;99.90
18043;DHT22;9146;48.074;11.968;2023-05-10T08:00:12;13.50;99.90
18043;DHT22;9146;48.074;11.968;2023-05-10T08:02:39;13.40;99.90
18043;DHT22;9146;48.074;11.968;2023-05-10T08:05:08;13.50;99.90
18043;DHT22;9146;48.074;11.968;2023-05-10T08:07:36;13.40;99.90
18043;DHT22;9146;48.074;11.968;2023-05-10T08:10:03;13.20;99.90
18043;DHT22;9146;48.074;11.968;2023-05-10T08:12:30;13.10;99.90
18043;DHT22;9146;48.074;11.968;2023-05-10T08:14:57;12.90;99.90
18043;DHT22;9146;48.074;11.968;2023-05-10T08:17:23;12.70;99.90
18043;DHT22;9146;48.074;11.968;2023-05-10T08:19:50;12.60;99.90
18043;DHT22;9146;48.074;11.968;2023-05-10T08:22:19;12.60;99.90
18043;DHT22;9146;48.074;11.968;2023-05-10T08:24:45;12.80;99.90
18043;DHT22;9146;48.074;11.968;2023-05-10T08:27:12;13.00;99.90
18043;DHT22;9146;48.074;11.968;2023-05-10T08:29:39;13.40;99.90
18043;DHT22;9146;48.074;11.968;2023-05-10T08:32:06;13.60;99.90
18043;DHT22;9146;48.074;11.968;2023-05-10T08:34:33;13.90;99.90
18043;DHT22;9146;48.074;11.968;2023-05-10T08:37:00;14.00;99.90
18043;DHT22;9146;48.074;11.968;2023-05-10T08:39:28;14.00;99.90
18043;DHT22;9146;48.074;11.968;2023-05-10T08:41:58;14.00;99.90
18043;DHT22;9146;48.074;11.968;2023-05-10T08:44:26;13.90;99.90
18043;DHT22;9146;48.074;11.968;2023-05-10T08:46:53;13.70;99.90
18043;DHT22;9146;48.074;11.968;2023-05-10T08:49:21;13.60;99.90
18043;DHT22;9146;48.074;11.968;2023-05-10T08:51:52;13.50;99.90
18043;DHT22;9146;48.074;11.968;2023-05-10T08:54:22;13.40;99.90
18043;DHT22;9146;48.074;11.968;2023-05-10T08:56:50;13.40;99.90
18043;DHT22;9146;48.074;11.968;2023-05-10T08:59:18;13.50;99.90
18043;DHT22;9146;48.074;11.968;2023-05-10T09:01:47;13.60;99.90
18043;DHT22;9146;48.074;11.968;2023-05-10T09:04:15;13.80;99.90
18043;DHT22;9146;48.074;11.968;2023-05-10T09:06:42;13.90;99.90
18043;DHT22;9146;48.074;11.968;2023-05-10T09:09:09;14.10;99.90
18043;DHT22;9146;48.074;11.968;2023-05-10T09:11:36;14.20;99.90
18043;DHT22;9146;48.074;11.968;2023-05-10T09:14:05;14.20;99.90
18043;DHT22;9146;48.074;11.968;2023-05-10T09:16:32;14.30;99.90
18043;DHT22;9146;48.074;11.968;2023-05-10T09:18:58;14.30;99.90
18043;DHT22;9146;48.074;11.968;2023-05-10T09:21:25;14.30;99.90
18043;DHT22;9146;48.074;11.968;2023-05-10T09:23:52;14.50;99.90
18043;DHT22;9146;48.074;11.968;2023-05-10T09:26:22;14.70;99.90
18043;DHT22;9146;48.074;11.968;2023-05-10T09:28:54;15.00;99.90
18043;DHT22;9146;48.074;11.968;2023-05-10T09:31:23;15.40;99.90
18043;DHT22;9146;48.074;11.968;2023-05-10T09:33:51;15.40;99.90
18043;DHT22;9146;48.074;11.968;2023-05-10T09:36:18;15.40;99.90
18043;DHT22;9146;48.074;11.968;2023-05-10T09:38:46;15.50;99.90
18043;DHT22;9146;48.074;11.968;2023-05-10T09:41:17;15.50;99.90
18043;DHT22;9146;48.074;11.968;2023-05-10T09:43:45;15.40;99.90
18043;DHT22;9146;48.074;11.968;2023-05-10T09:46:13;15.50;99.90
18043;DHT22;9146;48.074;11.968;2023-05-10T09:48:45;15.60;99.90
18043;DHT22;9146;48.074;11.968;2023-05-10T09:51:19;15.70;99.90
18043;DHT22;9146;48.074;11.968;2023-05-10T09:53:47;15.90;99.90
18043;DHT22;9146;48.074;11.968;2023-05-10T09:56:33;15.90;99.90
18043;DHT22;9146;48.074;11.968;2023-05-10T09:59:04;16.00;99.90
18043;DHT22;9146;48.074;11.968;2023-05-10T10:01:31;16.10;99.90
18043;DHT22;9146;48.074;11.968;2023-05-10T10:04:02;16.30;99.90
18043;DHT22;9146;48.074;11.968;2023-05-10T10:06:29;16.30;99.90
18043;DHT22;9146;48.074;11.968;2023-05-10T10:09:01;16.30;99.90
18043;DHT22;9146;48.074;11.968;2023-05-10T10:11:28;16.50;99.90
18043;DHT22;9146;48.074;11.968;2023-05-10T10:13:55;16.60;99.90
18043;DHT22;9146;48.074;11.968;2023-05-10T10:16:23;16.80;99.90
18043;DHT22;9146;48.074;11.968;2023-05-10T10:18:50;17.00;99.90
18043;DHT22;9146;48.074;11.968;2023-05-10T10:21:19;17.10;99.90
18043;DHT22;9146;48.074;11.968;2023-05-10T10:23:46;17.00;99.90
18043;DHT22;9146;48.074;11.968;2023-05-10T10:26:13;16.90;99.90
18043;DHT22;9146;48.074;11.968;2023-05-10T10:28:48;16.80;99.90
18043;DHT22;9146;48.074;11.968;2023-05-10T10:31:24;16.40;99.90
18043;DHT22;9146;48.074;11.968;2023-05-10T10:34:05;16.20;99.90
18043;DHT22;9146;48.074;11.968;2023-05-10T10:36:40;15.70;99.90
18043;DHT22;9146;48.074;11.968;2023-05-10T10:39:09;14.90;99.90
18043;DHT22;9146;48.074;11.968;2023-05-10T10:41:38;14.10;99.90
18043;DHT22;9146;48.074;11.968;2023-05-10T10:44:36;13.50;99.90
18043;DHT22;9146;48.074;11.968;2023-05-10T10:47:21;13.10;99.90
18043;DHT22;9146;48.074;11.968;2023-05-10T10:50:03;12.90;99.90
18043;DHT22;9146;48.074;11.968;2023-05-10T10:52:33;12.80;99.90
18043;DHT22;9146;48.074;11.968;2023-05-10T10:55:03;12.90;99.90
18043;DHT22;9146;48.074;11.968;2023-05-10T10:57:42;12.90;99.90
18043;DHT22;9146;48.074;11.968;2023-05-10T11:00:21;13.10;99.90
18043;DHT22;9146;48.074;11.968;2023-05-10T11:02:50;13.20;99.90
18043;DHT22;9146;48.074;11.968;2023-05-10T11:05:42;13.30;99.90
18043;DHT22;9146;48.074;11.968;2023-05-10T11:08:16;13.40;99.90
18043;DHT22;9146;48.074;11.968;2023-05-10T11:10:52;13.60;99.90
18043;DHT22;9146;48.074;11.968;2023-05-10T11:13:30;13.70;99.90
18043;DHT22;9146;48.074;11.968;2023-05-10T11:15:59;13.90;99.90
18043;DHT22;9146;48.074;11.968;2023-05-10T11:18:39;14.20;99.90
18043;DHT22;9146;48.074;11.968;2023-05-10T11:21:09;14.50;99.90
18043;DHT22;9146;48.074;11.968;2023-05-10T11:23:51;14.70;99.90
18043;DHT22;9146;48.074;11.968;2023-05-10T11:26:18;15.00;99.90
18043;DHT22;9146;48.074;11.968;2023-05-10T11:28:49;15.40;99.90
18043;DHT22;9146;48.074;11.968;2023-05-10T11:31:19;15.60;99.90
18043;DHT22;9146;48.074;11.968;2023-05-10T11:33:49;15.70;99.90
18043;DHT22;9146;48.074;11.968;2023-05-10T11:36:19;15.80;99.90
18043;DHT22;9146;48.074;11.968;2023-05-10T11:38:47;16.00;99.90
18043;DHT22;9146;48.074;11.968;2023-05-10T11:41:16;16.00;99.90
18043;DHT22;9146;48.074;11.968;2023-05-10T11:43:46;16.10;99.90
18043;DHT22;9146;48.074;11.968;2023-05-10T11:46:14;16.00;99.90
18043;DHT22;9146;48.074;11.968;2023-05-10T11:48:42;15.90;99.90
18043;DHT22;9146;48.074;11.968;2023-05-10T11:51:10;15.90;99.90
18043;DHT22;9146;48.074;11.968;2023-05-10T11:53:37;15.90;99.90
18043;DHT22;9146;48.074;11.968;2023-05-10T11:56:05;15.90;99.90
18043;DHT22;9146;48.074;11.968;2023-05-10T11:58:34;16.10;99.90
18043;DHT22;9146;48.074;11.968;2023-05-10T12:01:03;16.10;99.90
18043;DHT22;9146;48.074;11.968;2023-05-10T12:03:30;16.20;99.90
18043;DHT22;9146;48.074;11.968;2023-05-10T12:05:58;16.30;99.90
18043;DHT22;9146;48.074;11.968;2023-05-10T12:08:26;16.40;99.90
18043;DHT22;9146;48.074;11.968;2023-05-10T12:11:04;16.30;99.90
18043;DHT22;9146;48.074;11.968;2023-05-10T12:13:31;16.30;99.90
18043;DHT22;9146;48.074;11.968;2023-05-10T12:16:12;16.20;99.90
18043;DHT22;9146;48.074;11.968;2023-05-10T12:18:39;16.20;99.90
18043;DHT22;9146;48.074;11.968;2023-05-10T12:21:06;16.00;99.90
18043;DHT22;9146;48.074;11.968;2023-05-10T12:23:33;15.90;99.90
18043;DHT22;9146;48.074;11.968;2023-05-10T12:26:02;15.90;99.90
18043;DHT22;9146;48.074;11.968;2023-05-10T12:28:30;15.80;99.90
18043;DHT22;9146;48.074;11.968;2023-05-10T12:30:59;15.70;99.90
18043;DHT22;9146;48.074;11.968;2023-05-10T12:33:26;15.40;99.90
18043;DHT22;9146;48.074;11.968;2023-05-10T12:35:54;15.10;99.90
18043;DHT22;9146;48.074;11.968;2023-05-10T12:38:26;14.70;99.90
18043;DHT22;9146;48.074;11.968;2023-05-10T12:40:55;14.00;99.90
18043;DHT22;9146;48.074;11.968;2023-05-10T12:43:22;13.50;99.90
18043;DHT22;9146;48.074;11.968;2023-05-10T12:45:49;13.00;99.90
18043;DHT22;9146;48.074;11.968;2023-05-10T12:48:17;12.70;99.90
18043;DHT22;9146;48.074;11.968;2023-05-10T12:50:45;12.30;99.90
18043;DHT22;9146;48.074;11.968;2023-05-10T12:53:14;12.00;99.90
18043;DHT22;9146;48.074;11.968;2023-05-10T12:55:41;11.80;99.90
18043;DHT22;9146;48.074;11.968;2023-05-10T12:58:08;11.60;99.90
18043;DHT22;9146;48.074;11.968;2023-05-10T13:00:35;11.50;99.90
18043;DHT22;9146;48.074;11.968;2023-05-10T13:03:03;11.50;99.90
18043;DHT22;9146;48.074;11.968;2023-05-10T13:05:32;11.40;99.90
18043;DHT22;9146;48.074;11.968;2023-05-10T13:07:59;11.40;99.90
18043;DHT22;9146;48.074;11.968;2023-05-10T13:10:26;11.40;99.90
18043;DHT22;9146;48.074;11.968;2023-05-10T13:12:53;11.40;99.90
18043;DHT22;9146;48.074;11.968;2023-05-10T13:15:20;11.40;99.90
18043;DHT22;9146;48.074;11.968;2023-05-10T13:17:47;11.40;99.90
18043;DHT22;9146;48.074;11.968;2023-05-10T13:20:14;11.40;99.90
18043;DHT22;9146;48.074;11.968;2023-05-10T13:22:43;11.40;99.90
18043;DHT22;9146;48.074;11.968;2023-05-10T13:25:10;11.40;99.90
18043;DHT22;9146;48.074;11.968;2023-05-10T13:27:37;11.50;99.90
18043;DHT22;9146;48.074;11.968;2023-05-10T13:30:05;11.50;99.90
18043;DHT22;9146;48.074;11.968;2023-05-10T13:32:33;11.50;99.90
18043;DHT22;9146;48.074;11.968;2023-05-10T13:35:00;11.60;99.90
18043;DHT22;9146;48.074;11.968;2023-05-10T13:37:28;11.60;99.90
18043;DHT22;9146;48.074;11.968;2023-05-10T13:39:57;11.60;99.90
18043;DHT22;9146;48.074;11.968;2023-05-10T13:42:24;11.60;99.90
18043;DHT22;9146;48.074;11.968;2023-05-10T13:44:51;11.60;99.90
18043;DHT22;9146;48.074;11.968;2023-05-10T13:47:18;11.60;99.90
18043;DHT22;9146;48.074;11.968;2023-05-10T13:49:47;11.60;99.90
18043;DHT22;9146;48.074;11.968;2023-05-10T13:52:14;11.60;99.90
18043;DHT22;9146;48.074;11.968;2023-05-10T13:54:40;11.70;99.90
18043;DHT22;9146;48.074;11.968;2023-05-10T13:57:09;11.80;99.90
18043;DHT22;9146;48.074;11.968;2023-05-10T13:59:38;11.80;99.90
18043;DHT22;9146;48.074;11.968;2023-05-10T14:02:05;11.90;99.90
18043;DHT22;9146;48.074;11.968;2023-05-10T14:04:32;12.10;99.90
18043;DHT22;9146;48.074;11.968;2023-05-10T14:07:00;12.10;99.90
18043;DHT22;9146;48.074;11.968;2023-05-10T14:09:27;12.10;99.90
18043;DHT22;9146;48.074;11.968;2023-05-10T14:11:54;12.30;99.90
18043;DHT22;9146;48.074;11.968;2023-05-10T14:14:22;12.30;99.90
18043;DHT22;9146;48.074;11.968;2023-05-10T14:16:50;12.30;99.90
18043;DHT22;9146;48.074;11.968;2023-05-10T14:19:17;12.30;99.90
18043;DHT22;9146;48.074;11.968;2023-05-10T14:21:44;12.40;99.90
18043;DHT22;9146;48.074;11.968;2023-05-10T14:24:11;12.40;99.90
18043;DHT22;9146;48.074;11.968;2023-05-10T14:26:38;12.50;99.90
18043;DHT22;9146;48.074;11.968;2023-05-10T14:29:05;12.50;99.90
18043;DHT22;9146;48.074;11.968;2023-05-10T14:31:34;12.60;99.90
18043;DHT22;9146;48.074;11.968;2023-05-10T14:34:00;12.60;99.90
18043;DHT22;9146;48.074;11.968;2023-05-10T14:36:28;12.60;99.90
18043;DHT22;9146;48.074;11.968;2023-05-10T14:38:55;12.70;99.90
18043;DHT22;9146;48.074;11.968;2023-05-10T14:41:22;12.70;99.90
18043;DHT22;9146;48.074;11.968;2023-05-10T14:43:50;12.70;99.90
18043;DHT22;9146;48.074;11.968;2023-05-10T14:46:17;12.60;99.90
18043;DHT22;9146;48.074;11.968;2023-05-10T14:48:46;12.50;99.90
18043;DHT22;9146;48.074;11.968;2023-05-10T14:51:12;12.50;99.90
18043;DHT22;9146;48.074;11.968;2023-05-10T14:53:40;12.40;99.90
18043;DHT22;9146;48.074;11.968;2023-05-10T14:56:06;12.40;99.90
18043;DHT22;9146;48.074;11.968;2023-05-10T14:58:33;12.30;99.90
18043;DHT22;9146;48.074;11.968;2023-05-10T15:01:00;12.20;99.90
18043;DHT22;9146;48.074;11.968;2023-05-10T15:03:27;12.20;99.90
18043;DHT22;9146;48.074;11.968;2023-05-10T15:05:56;12.10;99.90
18043;DHT22;9146;48.074;11.968;2023-05-10T15:08:24;12.00;99.90
18043;DHT22;9146;48.074;11.968;2023-05-10T15:10:51;11.90;99.90
18043;DHT22;9146;48.074;11.968;2023-05-10T15:13:20;11.90;99.90
18043;DHT22;9146;48.074;11.968;2023-05-10T15:15:47;11.80;99.90
18043;DHT22;9146;48.074;11.968;2023-05-10T15:18:14;11.80;99.90
18043;DHT22;9146;48.074;11.968;2023-05-10T15:20:41;11.80;99.90
18043;DHT22;9146;48.074;11.968;2023-05-10T15:23:09;11.80;99.90
18043;DHT22;9146;48.074;11.968;2023-05-10T15:25:36;11.70;99.90
18043;DHT22;9146;48.074;11.968;2023-05-10T15:28:04;11.70;99.90
18043;DHT22;9146;48.074;11.968;2023-05-10T15:30:31;11.60;99.90
18043;DHT22;9146;48.074;11.968;2023-05-10T15:32:58;11.70;99.90
18043;DHT22;9146;48.074;11.968;2023-05-10T15:35:25;11.70;99.90
18043;DHT22;9146;48.074;11.968;2023-05-10T15:37:52;11.70;99.90
18043;DHT22;9146;48.074;11.968;2023-05-10T15:40:21;11.70;99.90
18043;DHT22;9146;48.074;11.968;2023-05-10T15:42:48;11.70;99.90
18043;DHT22;9146;48.074;11.968;2023-05-10T15:45:15;11.70;99.90